sensor_id;sensor_type;location;lat;lon;timestamp;P1;durP1;ratioP1;P2;durP2;ratioP2
4517;SDS011;2271;49.464;11.070;2023-09-18T00:01:50;4.72;;;4.22;;
4517;SDS011;2271;49.464;11.070;2023-09-18T00:04:16;4.60;;;4.20;;
4517;SDS011;2271;49.464;11.070;2023-09-18T00:06:42;4.72;;;4.20;;
4517;SDS011;2271;49.464;11.070;2023-09-18T00:09:07;4.07;;;3.72;;
4517;SDS011;2271;49.464;11.070;2023-09-18T00:11:38;3.90;;;3.50;;
4517;SDS011;2271;49.464;11.070;2023-09-18T00:14:04;4.32;;;3.92;;
4517;SDS011;2271;49.464;11.070;2023-09-18T00:16:30;5.28;;;3.90;;
4517;SDS011;2271;49.464;11.070;2023-09-18T00:18:57;3.85;;;3.55;;
4517;SDS011;2271;49.464;11.070;2023-09-18T00:21:23;4.65;;;4.25;;
4517;SDS011;2271;49.464;11.070;2023-09-18T00:23:50;5.63;;;4.32;;
4517;SDS011;2271;49.464;11.070;2023-09-18T00:26:16;4.60;;;4.07;;
4517;SDS011;2271;49.464;11.070;2023-09-18T00:28:42;5.15;;;4.65;;
4517;SDS011;2271;49.464;11.070;2023-09-18T00:31:08;4.50;;;4.10;;
4517;SDS011;2271;49.464;11.070;2023-09-18T00:33:33;4.63;;;4.22;;
4517;SDS011;2271;49.464;11.070;2023-09-18T00:35:59;4.63;;;4.03;;
4517;SDS011;2271;49.464;11.070;2023-09-18T00:38:24;6.72;;;3.83;;
4517;SDS011;2271;49.464;11.070;2023-09-18T00:40:50;3.90;;;3.55;;
4517;SDS011;2271;49.464;11.070;2023-09-18T00:43:16;4.80;;;4.10;;
4517;SDS011;2271;49.464;11.070;2023-09-18T00:45:44;4.45;;;4.05;;
4517;SDS011;2271;49.464;11.070;2023-09-18T00:48:10;3.75;;;3.45;;
4517;SDS011;2271;49.464;11.070;2023-09-18T00:50:37;4.22;;;3.83;;
4517;SDS011;2271;49.464;11.070;2023-09-18T00:53:03;4.93;;;4.22;;
4517;SDS011;2271;49.464;11.070;2023-09-18T00:55:32;4.65;;;4.25;;
4517;SDS011;2271;49.464;11.070;2023-09-18T00:57:58;4.25;;;3.85;;
4517;SDS011;2271;49.464;11.070;2023-09-18T01:00:24;4.07;;;3.70;;
4517;SDS011;2271;49.464;11.070;2023-09-18T01:02:49;4.00;;;3.45;;
4517;SDS011;2271;49.464;11.070;2023-09-18T01:05:15;4.63;;;3.50;;
4517;SDS011;2271;49.464;11.070;2023-09-18T01:07:42;4.63;;;4.22;;
4517;SDS011;2271;49.464;11.070;2023-09-18T01:10:08;4.47;;;3.75;;
4517;SDS011;2271;49.464;11.070;2023-09-18T01:12:44;4.30;;;3.58;;
4517;SDS011;2271;49.464;11.070;2023-09-18T01:17:43;5.72;;;4.40;;
4517;SDS011;2271;49.464;11.070;2023-09-18T01:20:11;4.43;;;4.03;;
4517;SDS011;2271;49.464;11.070;2023-09-18T01:22:37;5.57;;;4.15;;
4517;SDS011;2271;49.464;11.070;2023-09-18T01:25:03;3.83;;;3.50;;
4517;SDS011;2271;49.464;11.070;2023-09-18T01:27:29;10.40;;;4.10;;
4517;SDS011;2271;49.464;11.070;2023-09-18T01:29:55;4.25;;;3.85;;
4517;SDS011;2271;49.464;11.070;2023-09-18T01:32:21;4.32;;;3.92;;
4517;SDS011;2271;49.464;11.070;2023-09-18T01:34:53;4.15;;;3.50;;
4517;SDS011;2271;49.464;11.070;2023-09-18T01:37:21;3.92;;;3.55;;
4517;SDS011;2271;49.464;11.070;2023-09-18T01:39:51;5.72;;;4.32;;
4517;SDS011;2271;49.464;11.070;2023-09-18T01:42:17;5.80;;;4.15;;
4517;SDS011;2271;49.464;11.070;2023-09-18T01:44:43;4.00;;;3.63;;
4517;SDS011;2271;49.464;11.070;2023-09-18T01:47:14;4.75;;;3.90;;
4517;SDS011;2271;49.464;11.070;2023-09-18T01:49:44;3.67;;;3.38;;
4517;SDS011;2271;49.464;11.070;2023-09-18T01:52:11;4.40;;;3.80;;
4517;SDS011;2271;49.464;11.070;2023-09-18T01:54:37;3.67;;;3.20;;
4517;SDS011;2271;49.464;11.070;2023-09-18T01:57:03;4.32;;;3.65;;
4517;SDS011;2271;49.464;11.070;2023-09-18T01:59:29;4.45;;;4.05;;
4517;SDS011;2271;49.464;11.070;2023-09-18T02:01:55;4.03;;;3.67;;
4517;SDS011;2271;49.464;11.070;2023-09-18T02:04:22;4.13;;;3.67;;
4517;SDS011;2271;49.464;11.070;2023-09-18T02:06:48;3.47;;;3.17;;
4517;SDS011;2271;49.464;11.070;2023-09-18T02:09:15;3.78;;;3.47;;
4517;SDS011;2271;49.464;11.070;2023-09-18T02:11:42;3.92;;;3.50;;
4517;SDS011;2271;49.464;11.070;2023-09-18T02:14:12;3.70;;;3.38;;
4517;SDS011;2271;49.464;11.070;2023-09-18T02:16:40;5.05;;;3.58;;
4517;SDS011;2271;49.464;11.070;2023-09-18T02:19:08;4.45;;;3.97;;
4517;SDS011;2271;49.464;11.070;2023-09-18T02:21:34;4.03;;;3.72;;
4517;SDS011;2271;49.464;11.070;2023-09-18T02:24:00;3.22;;;3.03;;
4517;SDS011;2271;49.464;11.070;2023-09-18T02:26:27;3.65;;;3.35;;
4517;SDS011;2271;49.464;11.070;2023-09-18T02:28:53;3.55;;;3.17;;
4517;SDS011;2271;49.464;11.070;2023-09-18T02:31:19;4.07;;;3.30;;
4517;SDS011;2271;49.464;11.070;2023-09-18T02:33:48;4.40;;;4.00;;
4517;SDS011;2271;49.464;11.070;2023-09-18T02:36:14;4.47;;;3.90;;
4517;SDS011;2271;49.464;11.070;2023-09-18T02:38:40;3.70;;;3.40;;
4517;SDS011;2271;49.464;11.070;2023-09-18T02:41:05;5.72;;;3.90;;
4517;SDS011;2271;49.464;11.070;2023-09-18T02:43:31;4.22;;;3.83;;
4517;SDS011;2271;49.464;11.070;2023-09-18T02:45:57;4.03;;;3.72;;
4517;SDS011;2271;49.464;11.070;2023-09-18T02:48:22;3.45;;;3.15;;
4517;SDS011;2271;49.464;11.070;2023-09-18T02:50:48;4.32;;;3.70;;
4517;SDS011;2271;49.464;11.070;2023-09-18T02:53:31;4.05;;;3.60;;
4517;SDS011;2271;49.464;11.070;2023-09-18T02:55:58;4.10;;;3.70;;
4517;SDS011;2271;49.464;11.070;2023-09-18T02:58:25;4.35;;;3.95;;
4517;SDS011;2271;49.464;11.070;2023-09-18T03:00:51;5.70;;;4.60;;
4517;SDS011;2271;49.464;11.070;2023-09-18T03:03:18;3.78;;;3.35;;
4517;SDS011;2271;49.464;11.070;2023-09-18T03:05:44;4.35;;;3.97;;
4517;SDS011;2271;49.464;11.070;2023-09-18T03:08:10;4.18;;;3.47;;
4517;SDS011;2271;49.464;11.070;2023-09-18T03:10:40;4.22;;;3.58;;
4517;SDS011;2271;49.464;11.070;2023-09-18T03:13:10;5.00;;;3.85;;
4517;SDS011;2271;49.464;11.070;2023-09-18T03:15:38;4.55;;;4.07;;
4517;SDS011;2271;49.464;11.070;2023-09-18T03:18:06;5.75;;;3.90;;
4517;SDS011;2271;49.464;11.070;2023-09-18T03:20:34;4.32;;;3.92;;
4517;SDS011;2271;49.464;11.070;2023-09-18T03:23:00;4.63;;;4.22;;
4517;SDS011;2271;49.464;11.070;2023-09-18T03:25:27;4.88;;;3.72;;
4517;SDS011;2271;49.464;11.070;2023-09-18T03:27:53;4.43;;;4.03;;
4517;SDS011;2271;49.464;11.070;2023-09-18T03:30:21;3.65;;;3.35;;
4517;SDS011;2271;49.464;11.070;2023-09-18T03:32:48;4.90;;;3.90;;
4517;SDS011;2271;49.464;11.070;2023-09-18T03:35:14;5.20;;;4.70;;
4517;SDS011;2271;49.464;11.070;2023-09-18T03:37:46;6.70;;;4.88;;
4517;SDS011;2271;49.464;11.070;2023-09-18T03:40:16;4.95;;;4.40;;
4517;SDS011;2271;49.464;11.070;2023-09-18T03:42:43;4.60;;;3.90;;
4517;SDS011;2271;49.464;11.070;2023-09-18T03:45:08;4.57;;;4.18;;
4517;SDS011;2271;49.464;11.070;2023-09-18T03:47:35;4.45;;;3.97;;
4517;SDS011;2271;49.464;11.070;2023-09-18T03:50:02;5.07;;;4.50;;
4517;SDS011;2271;49.464;11.070;2023-09-18T03:52:28;3.75;;;3.45;;
4517;SDS011;2271;49.464;11.070;2023-09-18T03:54:54;4.00;;;3.60;;
4517;SDS011;2271;49.464;11.070;2023-09-18T03:57:20;4.07;;;3.78;;
4517;SDS011;2271;49.464;11.070;2023-09-18T03:59:45;4.60;;;4.00;;
4517;SDS011;2271;49.464;11.070;2023-09-18T04:02:11;4.68;;;3.97;;
4517;SDS011;2271;49.464;11.070;2023-09-18T04:04:37;7.45;;;4.70;;
4517;SDS011;2271;49.464;11.070;2023-09-18T04:07:05;4.03;;;3.63;;
4517;SDS011;2271;49.464;11.070;2023-09-18T04:09:31;6.10;;;4.35;;
4517;SDS011;2271;49.464;11.070;2023-09-18T04:11:57;6.25;;;4.03;;
4517;SDS011;2271;49.464;11.070;2023-09-18T04:14:23;5.13;;;4.25;;
4517;SDS011;2271;49.464;11.070;2023-09-18T04:16:49;5.75;;;3.97;;
4517;SDS011;2271;49.464;11.070;2023-09-18T04:19:15;4.80;;;4.18;;
4517;SDS011;2271;49.464;11.070;2023-09-18T04:21:40;9.75;;;4.30;;
4517;SDS011;2271;49.464;11.070;2023-09-18T04:24:06;6.65;;;3.80;;
4517;SDS011;2271;49.464;11.070;2023-09-18T04:26:32;4.38;;;3.97;;
4517;SDS011;2271;49.464;11.070;2023-09-18T04:28:58;4.47;;;4.07;;
4517;SDS011;2271;49.464;11.070;2023-09-18T04:31:25;7.07;;;4.28;;
4517;SDS011;2271;49.464;11.070;2023-09-18T04:33:52;4.53;;;4.10;;
4517;SDS011;2271;49.464;11.070;2023-09-18T04:36:18;5.47;;;4.78;;
4517;SDS011;2271;49.464;11.070;2023-09-18T04:38:43;5.90;;;4.60;;
4517;SDS011;2271;49.464;11.070;2023-09-18T04:41:09;5.47;;;4.50;;
4517;SDS011;2271;49.464;11.070;2023-09-18T04:43:36;4.60;;;4.18;;
4517;SDS011;2271;49.464;11.070;2023-09-18T04:46:04;7.35;;;4.68;;
4517;SDS011;2271;49.464;11.070;2023-09-18T04:48:31;4.22;;;3.85;;
4517;SDS011;2271;49.464;11.070;2023-09-18T04:50:57;4.65;;;3.92;;
4517;SDS011;2271;49.464;11.070;2023-09-18T04:53:23;5.32;;;4.82;;
4517;SDS011;2271;49.464;11.070;2023-09-18T04:55:49;5.25;;;4.75;;
4517;SDS011;2271;49.464;11.070;2023-09-18T04:58:15;5.35;;;4.60;;
4517;SDS011;2271;49.464;11.070;2023-09-18T05:00:42;5.53;;;4.57;;
4517;SDS011;2271;49.464;11.070;2023-09-18T05:03:07;8.15;;;5.30;;
4517;SDS011;2271;49.464;11.070;2023-09-18T05:05:34;4.88;;;4.28;;
4517;SDS011;2271;49.464;11.070;2023-09-18T05:08:04;5.07;;;4.47;;
4517;SDS011;2271;49.464;11.070;2023-09-18T05:10:35;9.45;;;4.57;;
4517;SDS011;2271;49.464;11.070;2023-09-18T05:13:01;4.82;;;4.43;;
4517;SDS011;2271;49.464;11.070;2023-09-18T05:15:27;5.07;;;4.15;;
4517;SDS011;2271;49.464;11.070;2023-09-18T05:17:57;4.15;;;3.83;;
4517;SDS011;2271;49.464;11.070;2023-09-18T05:20:24;5.00;;;4.30;;
4517;SDS011;2271;49.464;11.070;2023-09-18T05:22:51;4.68;;;4.28;;
4517;SDS011;2271;49.464;11.070;2023-09-18T05:25:18;4.30;;;3.90;;
4517;SDS011;2271;49.464;11.070;2023-09-18T05:27:46;5.97;;;4.65;;
4517;SDS011;2271;49.464;11.070;2023-09-18T05:30:18;7.53;;;4.47;;
4517;SDS011;2271;49.464;11.070;2023-09-18T05:32:46;5.22;;;4.57;;
4517;SDS011;2271;49.464;11.070;2023-09-18T05:35:13;6.20;;;4.25;;
4517;SDS011;2271;49.464;11.070;2023-09-18T05:37:40;5.38;;;4.63;;
4517;SDS011;2271;49.464;11.070;2023-09-18T05:40:07;5.05;;;4.53;;
4517;SDS011;2271;49.464;11.070;2023-09-18T05:42:40;6.32;;;5.35;;
4517;SDS011;2271;49.464;11.070;2023-09-18T05:45:13;4.95;;;4.55;;
4517;SDS011;2271;49.464;11.070;2023-09-18T05:47:40;5.75;;;5.05;;
4517;SDS011;2271;49.464;11.070;2023-09-18T05:50:08;10.35;;;4.78;;
4517;SDS011;2271;49.464;11.070;2023-09-18T05:52:34;6.60;;;4.72;;
4517;SDS011;2271;49.464;11.070;2023-09-18T05:55:01;7.10;;;4.15;;
4517;SDS011;2271;49.464;11.070;2023-09-18T05:57:28;6.20;;;4.70;;
4517;SDS011;2271;49.464;11.070;2023-09-18T05:59:56;5.82;;;5.22;;
4517;SDS011;2271;49.464;11.070;2023-09-18T06:02:22;5.55;;;4.72;;
4517;SDS011;2271;49.464;11.070;2023-09-18T06:04:49;4.82;;;4.28;;
4517;SDS011;2271;49.464;11.070;2023-09-18T06:07:23;5.78;;;5.03;;
4517;SDS011;2271;49.464;11.070;2023-09-18T06:09:49;7.32;;;4.60;;
4517;SDS011;2271;49.464;11.070;2023-09-18T06:12:15;6.03;;;4.03;;
4517;SDS011;2271;49.464;11.070;2023-09-18T06:14:40;7.18;;;4.40;;
4517;SDS011;2271;49.464;11.070;2023-09-18T06:17:07;5.13;;;4.43;;
4517;SDS011;2271;49.464;11.070;2023-09-18T06:19:34;10.02;;;5.10;;
4517;SDS011;2271;49.464;11.070;2023-09-18T06:22:00;4.88;;;4.38;;
4517;SDS011;2271;49.464;11.070;2023-09-18T06:24:26;5.13;;;4.43;;
4517;SDS011;2271;49.464;11.070;2023-09-18T06:26:51;7.20;;;4.97;;
4517;SDS011;2271;49.464;11.070;2023-09-18T06:29:18;5.65;;;5.07;;
4517;SDS011;2271;49.464;11.070;2023-09-18T06:31:43;5.72;;;4.88;;
4517;SDS011;2271;49.464;11.070;2023-09-18T06:34:09;10.35;;;6.10;;
4517;SDS011;2271;49.464;11.070;2023-09-18T06:36:35;6.13;;;4.70;;
4517;SDS011;2271;49.464;11.070;2023-09-18T06:39:00;7.65;;;5.43;;
4517;SDS011;2271;49.464;11.070;2023-09-18T06:41:26;5.95;;;4.70;;
4517;SDS011;2271;49.464;11.070;2023-09-18T06:43:52;8.77;;;4.65;;
4517;SDS011;2271;49.464;11.070;2023-09-18T06:46:17;5.03;;;4.25;;
4517;SDS011;2271;49.464;11.070;2023-09-18T06:48:43;4.53;;;3.78;;
4517;SDS011;2271;49.464;11.070;2023-09-18T06:51:14;8.15;;;4.65;;
4517;SDS011;2271;49.464;11.070;2023-09-18T06:53:40;6.68;;;4.53;;
4517;SDS011;2271;49.464;11.070;2023-09-18T06:56:05;10.75;;;4.45;;
4517;SDS011;2271;49.464;11.070;2023-09-18T06:58:31;8.05;;;4.57;;
4517;SDS011;2271;49.464;11.070;2023-09-18T07:00:57;7.05;;;5.80;;
4517;SDS011;2271;49.464;11.070;2023-09-18T07:03:22;5.32;;;4.70;;
4517;SDS011;2271;49.464;11.070;2023-09-18T07:05:48;5.03;;;3.88;;
4517;SDS011;2271;49.464;11.070;2023-09-18T07:08:14;7.30;;;4.65;;
4517;SDS011;2271;49.464;11.070;2023-09-18T07:10:44;5.30;;;4.53;;
4517;SDS011;2271;49.464;11.070;2023-09-18T07:13:10;5.95;;;3.88;;
4517;SDS011;2271;49.464;11.070;2023-09-18T07:15:36;8.23;;;4.07;;
4517;SDS011;2271;49.464;11.070;2023-09-18T07:18:02;5.25;;;4.40;;
4517;SDS011;2271;49.464;11.070;2023-09-18T07:20:28;5.05;;;3.95;;
4517;SDS011;2271;49.464;11.070;2023-09-18T07:22:55;6.05;;;4.22;;
4517;SDS011;2271;49.464;11.070;2023-09-18T07:25:21;4.72;;;3.70;;
4517;SDS011;2271;49.464;11.070;2023-09-18T07:27:47;5.18;;;4.05;;
4517;SDS011;2271;49.464;11.070;2023-09-18T07:30:13;5.20;;;3.83;;
4517;SDS011;2271;49.464;11.070;2023-09-18T07:32:44;7.30;;;4.05;;
4517;SDS011;2271;49.464;11.070;2023-09-18T07:35:11;4.43;;;4.05;;
4517;SDS011;2271;49.464;11.070;2023-09-18T07:37:38;4.85;;;3.90;;
4517;SDS011;2271;49.464;11.070;2023-09-18T07:40:05;4.00;;;3.60;;
4517;SDS011;2271;49.464;11.070;2023-09-18T07:42:31;4.03;;;3.63;;
4517;SDS011;2271;49.464;11.070;2023-09-18T07:44:58;4.70;;;3.40;;
4517;SDS011;2271;49.464;11.070;2023-09-18T07:47:23;3.88;;;3.45;;
4517;SDS011;2271;49.464;11.070;2023-09-18T07:49:49;6.70;;;4.05;;
4517;SDS011;2271;49.464;11.070;2023-09-18T07:52:16;4.10;;;3.47;;
4517;SDS011;2271;49.464;11.070;2023-09-18T07:54:42;5.57;;;4.22;;
4517;SDS011;2271;49.464;11.070;2023-09-18T07:57:08;4.13;;;3.60;;
4517;SDS011;2271;49.464;11.070;2023-09-18T07:59:34;6.18;;;4.10;;
4517;SDS011;2271;49.464;11.070;2023-09-18T08:02:01;6.00;;;3.80;;
4517;SDS011;2271;49.464;11.070;2023-09-18T08:04:27;3.90;;;3.40;;
4517;SDS011;2271;49.464;11.070;2023-09-18T08:06:52;6.32;;;3.90;;
4517;SDS011;2271;49.464;11.070;2023-09-18T08:09:18;4.88;;;3.67;;
4517;SDS011;2271;49.464;11.070;2023-09-18T08:11:44;6.55;;;3.60;;
4517;SDS011;2271;49.464;11.070;2023-09-18T08:14:10;8.23;;;3.88;;
4517;SDS011;2271;49.464;11.070;2023-09-18T08:16:37;4.45;;;4.05;;
4517;SDS011;2271;49.464;11.070;2023-09-18T08:19:04;7.05;;;4.05;;
4517;SDS011;2271;49.464;11.070;2023-09-18T08:21:29;4.40;;;3.42;;
4517;SDS011;2271;49.464;11.070;2023-09-18T08:23:55;4.25;;;3.70;;
4517;SDS011;2271;49.464;11.070;2023-09-18T08:26:21;5.22;;;3.95;;
4517;SDS011;2271;49.464;11.070;2023-09-18T08:28:47;6.75;;;3.88;;
4517;SDS011;2271;49.464;11.070;2023-09-18T08:31:13;4.70;;;4.00;;
4517;SDS011;2271;49.464;11.070;2023-09-18T08:33:41;12.70;;;3.67;;
4517;SDS011;2271;49.464;11.070;2023-09-18T08:36:07;5.88;;;3.45;;
4517;SDS011;2271;49.464;11.070;2023-09-18T08:38:33;5.70;;;3.88;;
4517;SDS011;2271;49.464;11.070;2023-09-18T08:40:59;5.13;;;3.55;;
4517;SDS011;2271;49.464;11.070;2023-09-18T08:43:24;4.88;;;3.17;;
4517;SDS011;2271;49.464;11.070;2023-09-18T08:45:52;6.32;;;2.75;;
4517;SDS011;2271;49.464;11.070;2023-09-18T08:48:18;4.35;;;3.30;;
4517;SDS011;2271;49.464;11.070;2023-09-18T08:50:45;7.22;;;3.75;;
4517;SDS011;2271;49.464;11.070;2023-09-18T08:53:12;5.57;;;4.28;;
4517;SDS011;2271;49.464;11.070;2023-09-18T08:55:38;8.57;;;3.35;;
4517;SDS011;2271;49.464;11.070;2023-09-18T08:58:05;8.45;;;3.05;;
4517;SDS011;2271;49.464;11.070;2023-09-18T09:00:33;5.97;;;2.88;;
4517;SDS011;2271;49.464;11.070;2023-09-18T09:03:02;8.35;;;2.53;;
4517;SDS011;2271;49.464;11.070;2023-09-18T09:05:29;5.70;;;2.50;;
4517;SDS011;2271;49.464;11.070;2023-09-18T09:07:56;10.10;;;2.72;;
4517;SDS011;2271;49.464;11.070;2023-09-18T09:10:22;5.10;;;3.38;;
4517;SDS011;2271;49.464;11.070;2023-09-18T09:12:52;6.88;;;2.65;;
4517;SDS011;2271;49.464;11.070;2023-09-18T09:15:20;6.47;;;2.95;;
4517;SDS011;2271;49.464;11.070;2023-09-18T09:17:48;5.05;;;2.65;;
4517;SDS011;2271;49.464;11.070;2023-09-18T09:20:15;4.68;;;2.90;;
4517;SDS011;2271;49.464;11.070;2023-09-18T09:22:42;5.35;;;2.70;;
4517;SDS011;2271;49.464;11.070;2023-09-18T09:27:46;7.65;;;3.08;;
4517;SDS011;2271;49.464;11.070;2023-09-18T09:30:18;7.78;;;3.10;;
4517;SDS011;2271;49.464;11.070;2023-09-18T09:32:47;8.52;;;2.17;;
4517;SDS011;2271;49.464;11.070;2023-09-18T09:38:00;5.63;;;2.90;;
4517;SDS011;2271;49.464;11.070;2023-09-18T09:40:31;4.28;;;2.40;;
4517;SDS011;2271;49.464;11.070;2023-09-18T09:42:57;5.72;;;2.40;;
4517;SDS011;2271;49.464;11.070;2023-09-18T09:45:27;3.78;;;2.65;;
4517;SDS011;2271;49.464;11.070;2023-09-18T09:48:05;4.35;;;2.58;;
4517;SDS011;2271;49.464;11.070;2023-09-18T09:50:31;6.47;;;2.10;;
4517;SDS011;2271;49.464;11.070;2023-09-18T09:52:58;3.53;;;2.10;;
4517;SDS011;2271;49.464;11.070;2023-09-18T09:55:32;5.05;;;2.30;;
4517;SDS011;2271;49.464;11.070;2023-09-18T09:58:06;4.65;;;2.10;;
4517;SDS011;2271;49.464;11.070;2023-09-18T10:00:35;5.15;;;2.08;;
4517;SDS011;2271;49.464;11.070;2023-09-18T10:03:08;4.05;;;2.17;;
4517;SDS011;2271;49.464;11.070;2023-09-18T10:05:35;3.40;;;1.85;;
4517;SDS011;2271;49.464;11.070;2023-09-18T10:08:07;8.65;;;2.58;;
4517;SDS011;2271;49.464;11.070;2023-09-18T10:10:38;3.58;;;1.90;;
4517;SDS011;2271;49.464;11.070;2023-09-18T10:13:12;6.45;;;2.00;;
4517;SDS011;2271;49.464;11.070;2023-09-18T10:15:46;3.03;;;2.00;;
4517;SDS011;2271;49.464;11.070;2023-09-18T10:18:21;5.53;;;1.92;;
4517;SDS011;2271;49.464;11.070;2023-09-18T10:20:52;6.70;;;2.00;;
4517;SDS011;2271;49.464;11.070;2023-09-18T10:26:13;2.08;;;1.50;;
4517;SDS011;2271;49.464;11.070;2023-09-18T10:28:42;3.10;;;1.70;;
4517;SDS011;2271;49.464;11.070;2023-09-18T10:31:09;2.40;;;1.70;;
4517;SDS011;2271;49.464;11.070;2023-09-18T10:33:37;4.28;;;2.03;;
4517;SDS011;2271;49.464;11.070;2023-09-18T10:36:03;4.97;;;1.75;;
4517;SDS011;2271;49.464;11.070;2023-09-18T10:38:30;5.28;;;1.65;;
4517;SDS011;2271;49.464;11.070;2023-09-18T10:40:57;3.65;;;1.50;;
4517;SDS011;2271;49.464;11.070;2023-09-18T10:43:24;5.00;;;2.10;;
4517;SDS011;2271;49.464;11.070;2023-09-18T10:45:49;6.68;;;2.15;;
4517;SDS011;2271;49.464;11.070;2023-09-18T10:48:17;5.25;;;2.08;;
4517;SDS011;2271;49.464;11.070;2023-09-18T10:50:44;6.13;;;1.88;;
4517;SDS011;2271;49.464;11.070;2023-09-18T10:53:10;3.85;;;1.50;;
4517;SDS011;2271;49.464;11.070;2023-09-18T10:55:37;8.27;;;1.40;;
4517;SDS011;2271;49.464;11.070;2023-09-18T10:58:03;2.65;;;1.67;;
4517;SDS011;2271;49.464;11.070;2023-09-18T11:00:29;3.20;;;1.60;;
4517;SDS011;2271;49.464;11.070;2023-09-18T11:06:04;2.97;;;1.15;;
4517;SDS011;2271;49.464;11.070;2023-09-18T11:08:32;4.15;;;1.23;;
4517;SDS011;2271;49.464;11.070;2023-09-18T11:11:01;2.72;;;1.77;;
4517;SDS011;2271;49.464;11.070;2023-09-18T11:13:49;5.68;;;1.60;;
4517;SDS011;2271;49.464;11.070;2023-09-18T11:18:51;3.28;;;1.10;;
4517;SDS011;2271;49.464;11.070;2023-09-18T11:21:23;3.70;;;1.55;;
4517;SDS011;2271;49.464;11.070;2023-09-18T11:23:57;5.57;;;1.70;;
4517;SDS011;2271;49.464;11.070;2023-09-18T11:26:23;7.38;;;1.80;;
4517;SDS011;2271;49.464;11.070;2023-09-18T11:28:53;3.72;;;1.35;;
4517;SDS011;2271;49.464;11.070;2023-09-18T11:31:19;4.20;;;1.55;;
4517;SDS011;2271;49.464;11.070;2023-09-18T11:33:47;2.00;;;1.23;;
4517;SDS011;2271;49.464;11.070;2023-09-18T11:36:13;1.10;;;0.95;;
4517;SDS011;2271;49.464;11.070;2023-09-18T11:38:56;4.28;;;0.82;;
4517;SDS011;2271;49.464;11.070;2023-09-18T11:41:24;8.75;;;0.90;;
4517;SDS011;2271;49.464;11.070;2023-09-18T11:43:52;1.60;;;0.77;;
4517;SDS011;2271;49.464;11.070;2023-09-18T11:46:38;1.55;;;0.70;;
4517;SDS011;2271;49.464;11.070;2023-09-18T11:49:06;1.27;;;1.10;;
4517;SDS011;2271;49.464;11.070;2023-09-18T11:51:34;2.40;;;1.10;;
4517;SDS011;2271;49.464;11.070;2023-09-18T11:54:01;2.00;;;1.17;;
4517;SDS011;2271;49.464;11.070;2023-09-18T11:56:28;2.70;;;0.80;;
4517;SDS011;2271;49.464;11.070;2023-09-18T11:58:55;3.38;;;1.40;;
4517;SDS011;2271;49.464;11.070;2023-09-18T12:01:21;3.45;;;1.30;;
4517;SDS011;2271;49.464;11.070;2023-09-18T12:03:53;5.35;;;1.73;;
4517;SDS011;2271;49.464;11.070;2023-09-18T12:06:19;3.55;;;1.00;;
4517;SDS011;2271;49.464;11.070;2023-09-18T12:08:46;3.30;;;1.20;;
4517;SDS011;2271;49.464;11.070;2023-09-18T12:11:13;5.38;;;1.20;;
4517;SDS011;2271;49.464;11.070;2023-09-18T12:13:44;2.58;;;1.08;;
4517;SDS011;2271;49.464;11.070;2023-09-18T12:16:11;3.25;;;0.93;;
4517;SDS011;2271;49.464;11.070;2023-09-18T12:18:36;1.58;;;1.05;;
4517;SDS011;2271;49.464;11.070;2023-09-18T12:21:09;4.70;;;1.17;;
4517;SDS011;2271;49.464;11.070;2023-09-18T12:23:39;4.10;;;1.27;;
4517;SDS011;2271;49.464;11.070;2023-09-18T12:26:05;2.75;;;1.13;;
4517;SDS011;2271;49.464;11.070;2023-09-18T12:28:35;3.92;;;1.30;;
4517;SDS011;2271;49.464;11.070;2023-09-18T12:31:01;10.50;;;1.10;;
4517;SDS011;2271;49.464;11.070;2023-09-18T12:33:38;2.72;;;1.17;;
4517;SDS011;2271;49.464;11.070;2023-09-18T12:36:05;3.63;;;1.27;;
4517;SDS011;2271;49.464;11.070;2023-09-18T12:38:31;3.10;;;1.15;;
4517;SDS011;2271;49.464;11.070;2023-09-18T12:40:58;3.50;;;1.52;;
4517;SDS011;2271;49.464;11.070;2023-09-18T12:43:38;1.52;;;0.70;;
4517;SDS011;2271;49.464;11.070;2023-09-18T12:46:06;2.05;;;1.00;;
4517;SDS011;2271;49.464;11.070;2023-09-18T12:48:36;1.00;;;0.70;;
4517;SDS011;2271;49.464;11.070;2023-09-18T12:51:04;4.00;;;1.20;;
4517;SDS011;2271;49.464;11.070;2023-09-18T12:53:30;3.58;;;1.45;;
4517;SDS011;2271;49.464;11.070;2023-09-18T12:56:10;3.75;;;1.88;;
4517;SDS011;2271;49.464;11.070;2023-09-18T12:58:42;6.68;;;1.67;;
4517;SDS011;2271;49.464;11.070;2023-09-18T13:01:09;2.20;;;1.17;;
4517;SDS011;2271;49.464;11.070;2023-09-18T13:03:46;3.45;;;1.17;;
4517;SDS011;2271;49.464;11.070;2023-09-18T13:06:15;4.70;;;1.52;;
4517;SDS011;2271;49.464;11.070;2023-09-18T13:08:42;4.85;;;1.50;;
4517;SDS011;2271;49.464;11.070;2023-09-18T13:11:08;4.03;;;1.38;;
4517;SDS011;2271;49.464;11.070;2023-09-18T13:13:36;2.65;;;0.95;;
4517;SDS011;2271;49.464;11.070;2023-09-18T13:16:04;2.97;;;1.30;;
4517;SDS011;2271;49.464;11.070;2023-09-18T13:18:31;2.05;;;0.90;;
4517;SDS011;2271;49.464;11.070;2023-09-18T13:20:57;1.48;;;1.10;;
4517;SDS011;2271;49.464;11.070;2023-09-18T13:23:29;3.05;;;1.15;;
4517;SDS011;2271;49.464;11.070;2023-09-18T13:25:59;2.28;;;1.33;;
4517;SDS011;2271;49.464;11.070;2023-09-18T13:28:26;2.40;;;1.20;;
4517;SDS011;2271;49.464;11.070;2023-09-18T13:30:51;2.15;;;0.90;;
4517;SDS011;2271;49.464;11.070;2023-09-18T13:33:17;1.05;;;0.85;;
4517;SDS011;2271;49.464;11.070;2023-09-18T13:35:44;1.67;;;1.00;;
4517;SDS011;2271;49.464;11.070;2023-09-18T13:38:10;2.85;;;0.90;;
4517;SDS011;2271;49.464;11.070;2023-09-18T13:40:37;0.82;;;0.73;;
4517;SDS011;2271;49.464;11.070;2023-09-18T13:43:04;2.97;;;0.93;;
4517;SDS011;2271;49.464;11.070;2023-09-18T13:45:31;2.40;;;1.30;;
4517;SDS011;2271;49.464;11.070;2023-09-18T13:47:57;3.40;;;0.95;;
4517;SDS011;2271;49.464;11.070;2023-09-18T13:50:23;2.13;;;0.82;;
4517;SDS011;2271;49.464;11.070;2023-09-18T13:52:48;2.03;;;1.00;;
4517;SDS011;2271;49.464;11.070;2023-09-18T13:55:14;2.67;;;0.88;;
4517;SDS011;2271;49.464;11.070;2023-09-18T13:57:39;2.10;;;0.90;;
4517;SDS011;2271;49.464;11.070;2023-09-18T14:00:06;1.38;;;0.90;;
4517;SDS011;2271;49.464;11.070;2023-09-18T14:02:33;3.40;;;1.25;;
4517;SDS011;2271;49.464;11.070;2023-09-18T14:04:59;2.10;;;0.80;;
4517;SDS011;2271;49.464;11.070;2023-09-18T14:07:26;3.25;;;0.90;;
4517;SDS011;2271;49.464;11.070;2023-09-18T14:09:51;1.65;;;1.00;;
4517;SDS011;2271;49.464;11.070;2023-09-18T14:12:17;1.73;;;1.15;;
4517;SDS011;2271;49.464;11.070;2023-09-18T14:14:43;2.13;;;0.70;;
4517;SDS011;2271;49.464;11.070;2023-09-18T14:17:09;2.35;;;0.95;;
4517;SDS011;2271;49.464;11.070;2023-09-18T14:19:35;2.05;;;1.05;;
4517;SDS011;2271;49.464;11.070;2023-09-18T14:22:03;2.72;;;1.17;;
4517;SDS011;2271;49.464;11.070;2023-09-18T14:24:30;1.33;;;0.82;;
4517;SDS011;2271;49.464;11.070;2023-09-18T14:26:56;3.25;;;0.80;;
4517;SDS011;2271;49.464;11.070;2023-09-18T14:29:22;2.13;;;1.10;;
4517;SDS011;2271;49.464;11.070;2023-09-18T14:31:47;1.30;;;1.20;;
4517;SDS011;2271;49.464;11.070;2023-09-18T14:34:13;2.30;;;1.00;;
4517;SDS011;2271;49.464;11.070;2023-09-18T14:36:39;1.50;;;0.90;;
4517;SDS011;2271;49.464;11.070;2023-09-18T14:39:05;2.33;;;0.95;;
4517;SDS011;2271;49.464;11.070;2023-09-18T14:41:37;2.65;;;1.30;;
4517;SDS011;2271;49.464;11.070;2023-09-18T14:44:04;1.70;;;1.00;;
4517;SDS011;2271;49.464;11.070;2023-09-18T14:46:30;2.10;;;1.05;;
4517;SDS011;2271;49.464;11.070;2023-09-18T14:48:58;2.45;;;1.15;;
4517;SDS011;2271;49.464;11.070;2023-09-18T14:51:26;1.58;;;1.15;;
4517;SDS011;2271;49.464;11.070;2023-09-18T14:53:53;3.55;;;0.98;;
4517;SDS011;2271;49.464;11.070;2023-09-18T14:56:20;1.27;;;1.00;;
4517;SDS011;2271;49.464;11.070;2023-09-18T14:58:46;2.20;;;0.88;;
4517;SDS011;2271;49.464;11.070;2023-09-18T15:01:11;1.90;;;1.30;;
4517;SDS011;2271;49.464;11.070;2023-09-18T15:03:38;4.28;;;1.50;;
4517;SDS011;2271;49.464;11.070;2023-09-18T15:06:04;5.35;;;1.23;;
4517;SDS011;2271;49.464;11.070;2023-09-18T15:08:32;1.30;;;0.90;;
4517;SDS011;2271;49.464;11.070;2023-09-18T15:10:59;2.88;;;0.88;;
4517;SDS011;2271;49.464;11.070;2023-09-18T15:13:25;4.78;;;1.13;;
4517;SDS011;2271;49.464;11.070;2023-09-18T15:15:50;1.77;;;1.02;;
4517;SDS011;2271;49.464;11.070;2023-09-18T15:18:16;2.53;;;1.48;;